sensor_id;sensor_type;location;lat;lon;timestamp;temperature;humidity
27314;DHT22;14800;48.174;9.798;2023-02-26T00:01:16;2.60;75.00
27314;DHT22;14800;48.174;9.798;2023-02-26T00:03:42;2.60;75.20
27314;DHT22;14800;48.174;9.798;2023-02-26T00:06:08;2.60;75.50
27314;DHT22;14800;48.174;9.798;2023-02-26T00:08:34;2.60;75.70
27314;DHT22;14800;48.174;9.798;2023-02-26T00:11:00;2.60;75.70
27314;DHT22;14800;48.174;9.798;2023-02-26T00:13:27;2.60;75.70
27314;DHT22;14800;48.174;9.798;2023-02-26T00:15:58;2.60;75.50
27314;DHT22;14800;48.174;9.798;2023-02-26T00:18:24;2.60;75.10
27314;DHT22;14800;48.174;9.798;2023-02-26T00:20:50;2.60;75.00
27314;DHT22;14800;48.174;9.798;2023-02-26T00:23:16;2.60;74.90
27314;DHT22;14800;48.174;9.798;2023-02-26T00:25:43;2.60;75.00
27314;DHT22;14800;48.174;9.798;2023-02-26T00:28:09;2.60;75.10
27314;DHT22;14800;48.174;9.798;2023-02-26T00:30:36;2.60;75.50
27314;DHT22;14800;48.174;9.798;2023-02-26T00:33:02;2.60;75.50
27314;DHT22;14800;48.174;9.798;2023-02-26T00:35:28;2.60;75.30
27314;DHT22;14800;48.174;9.798;2023-02-26T00:43:01;2.70;75.60
27314;DHT22;14800;48.174;9.798;2023-02-26T00:45:27;2.70;75.50
27314;DHT22;14800;48.174;9.798;2023-02-26T00:48:15;2.70;75.50
27314;DHT22;14800;48.174;9.798;2023-02-26T00:50:52;2.70;75.60
27314;DHT22;14800;48.174;9.798;2023-02-26T00:53:21;2.70;75.30
27314;DHT22;14800;48.174;9.798;2023-02-26T00:55:49;2.70;75.20
27314;DHT22;14800;48.174;9.798;2023-02-26T00:58:14;2.60;74.90
27314;DHT22;14800;48.174;9.798;2023-02-26T01:00:40;2.60;75.00
27314;DHT22;14800;48.174;9.798;2023-02-26T01:03:06;2.60;75.30
27314;DHT22;14800;48.174;9.798;2023-02-26T01:05:32;2.50;75.70
27314;DHT22;14800;48.174;9.798;2023-02-26T01:08:20;2.50;74.50
27314;DHT22;14800;48.174;9.798;2023-02-26T01:10:49;2.40;74.70
27314;DHT22;14800;48.174;9.798;2023-02-26T01:13:14;2.30;75.10
27314;DHT22;14800;48.174;9.798;2023-02-26T01:15:46;2.30;75.40
27314;DHT22;14800;48.174;9.798;2023-02-26T01:18:26;2.30;75.70
27314;DHT22;14800;48.174;9.798;2023-02-26T01:20:58;2.20;74.70
27314;DHT22;14800;48.174;9.798;2023-02-26T01:23:26;2.20;75.00
27314;DHT22;14800;48.174;9.798;2023-02-26T01:28:19;2.00;75.40
27314;DHT22;14800;48.174;9.798;2023-02-26T01:30:45;2.00;75.20
27314;DHT22;14800;48.174;9.798;2023-02-26T01:36:02;1.90;75.50
27314;DHT22;14800;48.174;9.798;2023-02-26T01:41:54;1.80;75.40
27314;DHT22;14800;48.174;9.798;2023-02-26T01:47:08;1.80;75.20
27314;DHT22;14800;48.174;9.798;2023-02-26T01:49:35;1.70;74.40
27314;DHT22;14800;48.174;9.798;2023-02-26T01:52:03;1.70;74.80
27314;DHT22;14800;48.174;9.798;2023-02-26T01:54:35;1.70;74.90
27314;DHT22;14800;48.174;9.798;2023-02-26T01:57:08;1.60;74.70
27314;DHT22;14800;48.174;9.798;2023-02-26T01:59:38;1.60;74.50
27314;DHT22;14800;48.174;9.798;2023-02-26T02:02:07;1.60;74.70
27314;DHT22;14800;48.174;9.798;2023-02-26T02:04:34;1.60;74.90
27314;DHT22;14800;48.174;9.798;2023-02-26T02:07:00;1.60;74.80
27314;DHT22;14800;48.174;9.798;2023-02-26T02:09:26;1.60;75.00
27314;DHT22;14800;48.174;9.798;2023-02-26T02:11:58;1.60;75.20
27314;DHT22;14800;48.174;9.798;2023-02-26T02:25:54;1.50;75.30
27314;DHT22;14800;48.174;9.798;2023-02-26T02:28:57;1.50;75.50
27314;DHT22;14800;48.174;9.798;2023-02-26T02:31:32;1.50;75.80
27314;DHT22;14800;48.174;9.798;2023-02-26T02:44:42;1.50;76.20
27314;DHT22;14800;48.174;9.798;2023-02-26T02:47:11;1.60;76.20
27314;DHT22;14800;48.174;9.798;2023-02-26T02:49:53;1.60;76.20
27314;DHT22;14800;48.174;9.798;2023-02-26T02:52:46;1.60;76.30
27314;DHT22;14800;48.174;9.798;2023-02-26T02:55:18;1.70;76.20
27314;DHT22;14800;48.174;9.798;2023-02-26T02:57:50;1.70;75.90
27314;DHT22;14800;48.174;9.798;2023-02-26T03:00:20;1.70;75.70
27314;DHT22;14800;48.174;9.798;2023-02-26T03:03:05;1.60;75.80
27314;DHT22;14800;48.174;9.798;2023-02-26T03:05:32;1.60;76.00
27314;DHT22;14800;48.174;9.798;2023-02-26T03:08:02;1.60;75.70
27314;DHT22;14800;48.174;9.798;2023-02-26T03:10:28;1.70;75.50
27314;DHT22;14800;48.174;9.798;2023-02-26T03:12:53;1.70;75.40
27314;DHT22;14800;48.174;9.798;2023-02-26T03:23:49;1.60;73.40
27314;DHT22;14800;48.174;9.798;2023-02-26T03:26:28;1.50;73.90
27314;DHT22;14800;48.174;9.798;2023-02-26T03:31:57;1.40;72.70
27314;DHT22;14800;48.174;9.798;2023-02-26T03:37:14;1.30;73.90
27314;DHT22;14800;48.174;9.798;2023-02-26T03:39:45;1.20;73.80
27314;DHT22;14800;48.174;9.798;2023-02-26T03:45:01;1.20;73.70
27314;DHT22;14800;48.174;9.798;2023-02-26T03:47:31;1.10;73.70
27314;DHT22;14800;48.174;9.798;2023-02-26T03:50:11;1.10;73.50
27314;DHT22;14800;48.174;9.798;2023-02-26T03:52:40;1.00;73.80
27314;DHT22;14800;48.174;9.798;2023-02-26T03:55:14;1.00;74.10
27314;DHT22;14800;48.174;9.798;2023-02-26T03:57:41;1.00;74.40
27314;DHT22;14800;48.174;9.798;2023-02-26T04:00:08;1.00;74.10
27314;DHT22;14800;48.174;9.798;2023-02-26T04:03:00;0.90;74.20
27314;DHT22;14800;48.174;9.798;2023-02-26T04:05:31;0.90;74.30
27314;DHT22;14800;48.174;9.798;2023-02-26T04:07:59;0.90;74.10
27314;DHT22;14800;48.174;9.798;2023-02-26T04:10:33;0.90;73.80
27314;DHT22;14800;48.174;9.798;2023-02-26T04:13:01;0.90;74.10
27314;DHT22;14800;48.174;9.798;2023-02-26T04:15:27;0.80;74.10
27314;DHT22;14800;48.174;9.798;2023-02-26T04:17:53;0.80;74.10
27314;DHT22;14800;48.174;9.798;2023-02-26T04:20:18;0.80;73.90
27314;DHT22;14800;48.174;9.798;2023-02-26T04:22:44;0.80;74.00
27314;DHT22;14800;48.174;9.798;2023-02-26T04:25:10;0.70;73.90
27314;DHT22;14800;48.174;9.798;2023-02-26T04:27:35;0.70;74.70
27314;DHT22;14800;48.174;9.798;2023-02-26T04:30:01;0.60;73.90
27314;DHT22;14800;48.174;9.798;2023-02-26T04:32:27;0.60;73.90
27314;DHT22;14800;48.174;9.798;2023-02-26T04:34:52;0.60;73.80
27314;DHT22;14800;48.174;9.798;2023-02-26T04:37:18;0.50;74.10
27314;DHT22;14800;48.174;9.798;2023-02-26T04:39:43;0.50;74.30
27314;DHT22;14800;48.174;9.798;2023-02-26T04:42:09;0.50;74.40
27314;DHT22;14800;48.174;9.798;2023-02-26T04:44:34;0.50;74.40
27314;DHT22;14800;48.174;9.798;2023-02-26T04:47:00;0.50;74.40
27314;DHT22;14800;48.174;9.798;2023-02-26T04:49:26;0.50;74.50
27314;DHT22;14800;48.174;9.798;2023-02-26T04:51:51;0.50;74.40
27314;DHT22;14800;48.174;9.798;2023-02-26T04:54:17;0.50;74.50
27314;DHT22;14800;48.174;9.798;2023-02-26T04:56:42;0.50;74.30
27314;DHT22;14800;48.174;9.798;2023-02-26T04:59:08;0.50;74.10
27314;DHT22;14800;48.174;9.798;2023-02-26T05:01:34;0.40;74.00
27314;DHT22;14800;48.174;9.798;2023-02-26T05:04:00;0.50;74.10
27314;DHT22;14800;48.174;9.798;2023-02-26T05:06:25;0.40;74.30
27314;DHT22;14800;48.174;9.798;2023-02-26T05:08:51;0.40;74.20
27314;DHT22;14800;48.174;9.798;2023-02-26T05:11:16;0.40;74.10
27314;DHT22;14800;48.174;9.798;2023-02-26T05:13:42;0.40;74.30
27314;DHT22;14800;48.174;9.798;2023-02-26T05:16:08;0.40;74.40
27314;DHT22;14800;48.174;9.798;2023-02-26T05:18:34;0.40;74.40
27314;DHT22;14800;48.174;9.798;2023-02-26T05:20:59;0.50;75.20
27314;DHT22;14800;48.174;9.798;2023-02-26T05:23:25;0.50;74.30
27314;DHT22;14800;48.174;9.798;2023-02-26T05:25:54;0.50;74.30
27314;DHT22;14800;48.174;9.798;2023-02-26T05:28:20;0.50;74.10
27314;DHT22;14800;48.174;9.798;2023-02-26T05:30:46;0.50;74.10
27314;DHT22;14800;48.174;9.798;2023-02-26T05:33:11;0.50;73.80
27314;DHT22;14800;48.174;9.798;2023-02-26T05:35:37;0.50;73.60
27314;DHT22;14800;48.174;9.798;2023-02-26T05:38:03;0.40;73.60
27314;DHT22;14800;48.174;9.798;2023-02-26T05:40:29;0.40;73.60
27314;DHT22;14800;48.174;9.798;2023-02-26T05:42:54;0.40;73.70
27314;DHT22;14800;48.174;9.798;2023-02-26T05:45:20;0.40;73.60
27314;DHT22;14800;48.174;9.798;2023-02-26T05:47:45;0.40;73.60
27314;DHT22;14800;48.174;9.798;2023-02-26T05:50:11;0.30;73.50
27314;DHT22;14800;48.174;9.798;2023-02-26T05:52:36;0.30;73.50
27314;DHT22;14800;48.174;9.798;2023-02-26T05:55:02;0.30;73.40
27314;DHT22;14800;48.174;9.798;2023-02-26T05:57:28;0.30;73.60
27314;DHT22;14800;48.174;9.798;2023-02-26T05:59:54;0.20;73.70
27314;DHT22;14800;48.174;9.798;2023-02-26T06:02:20;0.20;73.60
27314;DHT22;14800;48.174;9.798;2023-02-26T06:04:45;0.20;73.60
27314;DHT22;14800;48.174;9.798;2023-02-26T06:07:11;0.10;73.60
27314;DHT22;14800;48.174;9.798;2023-02-26T06:09:37;0.10;73.60
27314;DHT22;14800;48.174;9.798;2023-02-26T06:12:03;0.10;73.80
27314;DHT22;14800;48.174;9.798;2023-02-26T06:14:29;0.10;73.70
27314;DHT22;14800;48.174;9.798;2023-02-26T06:16:54;0.00;73.60
27314;DHT22;14800;48.174;9.798;2023-02-26T06:19:20;0.00;73.50
27314;DHT22;14800;48.174;9.798;2023-02-26T06:21:46;-0.10;73.60
27314;DHT22;14800;48.174;9.798;2023-02-26T06:24:12;-0.10;73.60
27314;DHT22;14800;48.174;9.798;2023-02-26T06:26:37;-0.10;73.80
27314;DHT22;14800;48.174;9.798;2023-02-26T06:29:03;-0.10;73.80
27314;DHT22;14800;48.174;9.798;2023-02-26T06:31:29;-0.20;73.80
27314;DHT22;14800;48.174;9.798;2023-02-26T06:33:54;-0.20;73.80
27314;DHT22;14800;48.174;9.798;2023-02-26T06:36:20;-0.20;73.90
27314;DHT22;14800;48.174;9.798;2023-02-26T06:38:45;-0.30;73.80
27314;DHT22;14800;48.174;9.798;2023-02-26T06:41:11;-0.30;73.60
27314;DHT22;14800;48.174;9.798;2023-02-26T06:43:38;-0.40;73.60
27314;DHT22;14800;48.174;9.798;2023-02-26T06:46:04;-0.40;74.00
27314;DHT22;14800;48.174;9.798;2023-02-26T06:48:29;-0.40;74.10
27314;DHT22;14800;48.174;9.798;2023-02-26T06:50:55;-0.40;74.30
27314;DHT22;14800;48.174;9.798;2023-02-26T06:53:21;-0.40;74.40
27314;DHT22;14800;48.174;9.798;2023-02-26T06:55:51;-0.40;74.50
27314;DHT22;14800;48.174;9.798;2023-02-26T06:58:17;-0.40;74.40
27314;DHT22;14800;48.174;9.798;2023-02-26T07:00:42;-0.40;74.00
27314;DHT22;14800;48.174;9.798;2023-02-26T07:03:13;-0.40;73.90
27314;DHT22;14800;48.174;9.798;2023-02-26T07:05:40;-0.50;73.40
27314;DHT22;14800;48.174;9.798;2023-02-26T07:08:06;-0.50;73.60
27314;DHT22;14800;48.174;9.798;2023-02-26T07:10:32;-0.60;73.90
27314;DHT22;14800;48.174;9.798;2023-02-26T07:12:58;-0.60;74.10
27314;DHT22;14800;48.174;9.798;2023-02-26T07:15:24;-0.60;74.50
27314;DHT22;14800;48.174;9.798;2023-02-26T07:17:50;-0.60;74.60
27314;DHT22;14800;48.174;9.798;2023-02-26T07:20:15;-0.60;74.80
27314;DHT22;14800;48.174;9.798;2023-02-26T07:22:42;-0.50;74.80
27314;DHT22;14800;48.174;9.798;2023-02-26T07:25:08;-0.50;75.00
27314;DHT22;14800;48.174;9.798;2023-02-26T07:27:34;-0.50;74.90
27314;DHT22;14800;48.174;9.798;2023-02-26T07:30:00;-0.40;75.10
27314;DHT22;14800;48.174;9.798;2023-02-26T07:32:25;-0.30;75.30
27314;DHT22;14800;48.174;9.798;2023-02-26T07:34:51;-0.30;75.20
27314;DHT22;14800;48.174;9.798;2023-02-26T07:37:17;-0.30;75.10
27314;DHT22;14800;48.174;9.798;2023-02-26T07:39:43;-0.30;75.00
27314;DHT22;14800;48.174;9.798;2023-02-26T07:42:09;-0.20;75.00
27314;DHT22;14800;48.174;9.798;2023-02-26T07:44:35;-0.20;74.80
27314;DHT22;14800;48.174;9.798;2023-02-26T07:47:01;-0.10;74.90
27314;DHT22;14800;48.174;9.798;2023-02-26T07:49:26;-0.10;75.00
27314;DHT22;14800;48.174;9.798;2023-02-26T07:51:52;-0.10;74.80
27314;DHT22;14800;48.174;9.798;2023-02-26T07:54:18;0.00;74.70
27314;DHT22;14800;48.174;9.798;2023-02-26T07:56:43;0.00;74.60
27314;DHT22;14800;48.174;9.798;2023-02-26T07:59:10;0.00;74.60
27314;DHT22;14800;48.174;9.798;2023-02-26T08:01:36;0.00;74.50
27314;DHT22;14800;48.174;9.798;2023-02-26T08:04:02;0.00;74.50
27314;DHT22;14800;48.174;9.798;2023-02-26T08:06:28;0.10;74.60
27314;DHT22;14800;48.174;9.798;2023-02-26T08:08:54;0.10;74.60
27314;DHT22;14800;48.174;9.798;2023-02-26T08:11:19;0.10;74.60
27314;DHT22;14800;48.174;9.798;2023-02-26T08:13:45;0.20;74.70
27314;DHT22;14800;48.174;9.798;2023-02-26T08:16:10;0.20;74.70
27314;DHT22;14800;48.174;9.798;2023-02-26T08:18:36;0.30;75.00
27314;DHT22;14800;48.174;9.798;2023-02-26T08:21:02;0.30;75.30
27314;DHT22;14800;48.174;9.798;2023-02-26T08:23:28;0.40;75.40
27314;DHT22;14800;48.174;9.798;2023-02-26T08:26:06;0.50;75.20
27314;DHT22;14800;48.174;9.798;2023-02-26T08:28:32;0.60;74.60
27314;DHT22;14800;48.174;9.798;2023-02-26T08:30:58;0.70;74.60
27314;DHT22;14800;48.174;9.798;2023-02-26T08:33:24;0.70;74.60
27314;DHT22;14800;48.174;9.798;2023-02-26T08:35:50;0.80;74.30
27314;DHT22;14800;48.174;9.798;2023-02-26T08:38:16;0.80;74.10
27314;DHT22;14800;48.174;9.798;2023-02-26T08:40:42;0.80;74.00
27314;DHT22;14800;48.174;9.798;2023-02-26T08:43:08;0.90;73.80
27314;DHT22;14800;48.174;9.798;2023-02-26T08:45:36;0.90;73.80
27314;DHT22;14800;48.174;9.798;2023-02-26T08:48:01;0.90;73.80
27314;DHT22;14800;48.174;9.798;2023-02-26T08:50:27;0.90;73.60
27314;DHT22;14800;48.174;9.798;2023-02-26T08:52:53;0.90;73.60
27314;DHT22;14800;48.174;9.798;2023-02-26T08:55:19;0.90;73.60
27314;DHT22;14800;48.174;9.798;2023-02-26T08:57:44;0.90;73.50
27314;DHT22;14800;48.174;9.798;2023-02-26T09:00:10;0.90;73.30
27314;DHT22;14800;48.174;9.798;2023-02-26T09:02:37;0.90;72.90
27314;DHT22;14800;48.174;9.798;2023-02-26T09:05:03;0.90;73.00
27314;DHT22;14800;48.174;9.798;2023-02-26T09:07:29;0.90;73.00
27314;DHT22;14800;48.174;9.798;2023-02-26T09:09:55;0.90;73.00
27314;DHT22;14800;48.174;9.798;2023-02-26T09:12:20;0.90;73.30
27314;DHT22;14800;48.174;9.798;2023-02-26T09:14:46;0.80;73.30
27314;DHT22;14800;48.174;9.798;2023-02-26T09:17:11;0.80;73.30
27314;DHT22;14800;48.174;9.798;2023-02-26T09:19:37;0.80;73.30
27314;DHT22;14800;48.174;9.798;2023-02-26T09:22:03;0.80;73.40
27314;DHT22;14800;48.174;9.798;2023-02-26T09:24:29;0.90;73.60
27314;DHT22;14800;48.174;9.798;2023-02-26T09:26:54;0.90;73.80
27314;DHT22;14800;48.174;9.798;2023-02-26T09:29:20;0.90;74.00
27314;DHT22;14800;48.174;9.798;2023-02-26T09:31:45;1.00;74.10
27314;DHT22;14800;48.174;9.798;2023-02-26T09:34:11;1.10;74.10
27314;DHT22;14800;48.174;9.798;2023-02-26T09:36:38;1.20;74.00
27314;DHT22;14800;48.174;9.798;2023-02-26T09:39:04;1.20;73.80
27314;DHT22;14800;48.174;9.798;2023-02-26T09:41:40;1.30;74.20
27314;DHT22;14800;48.174;9.798;2023-02-26T09:55:33;1.50;72.50
27314;DHT22;14800;48.174;9.798;2023-02-26T09:58:03;1.50;72.30
27314;DHT22;14800;48.174;9.798;2023-02-26T10:01:21;1.40;72.20
27314;DHT22;14800;48.174;9.798;2023-02-26T10:03:50;1.50;72.20
27314;DHT22;14800;48.174;9.798;2023-02-26T10:09:32;1.40;72.20
27314;DHT22;14800;48.174;9.798;2023-02-26T10:12:18;1.50;72.20
27314;DHT22;14800;48.174;9.798;2023-02-26T10:20:29;1.40;72.30
27314;DHT22;14800;48.174;9.798;2023-02-26T10:23:03;1.50;72.50
27314;DHT22;14800;48.174;9.798;2023-02-26T10:25:36;1.50;72.50
27314;DHT22;14800;48.174;9.798;2023-02-26T10:31:12;1.60;72.10
27314;DHT22;14800;48.174;9.798;2023-02-26T10:33:55;1.60;72.20
27314;DHT22;14800;48.174;9.798;2023-02-26T10:36:27;1.60;72.30
27314;DHT22;14800;48.174;9.798;2023-02-26T10:39:02;1.60;73.10
27314;DHT22;14800;48.174;9.798;2023-02-26T10:41:30;1.70;72.50
27314;DHT22;14800;48.174;9.798;2023-02-26T10:44:15;1.70;72.20
27314;DHT22;14800;48.174;9.798;2023-02-26T10:51:53;1.70;72.40
27314;DHT22;14800;48.174;9.798;2023-02-26T10:55:03;1.70;72.40
27314;DHT22;14800;48.174;9.798;2023-02-26T10:57:31;1.70;72.80
27314;DHT22;14800;48.174;9.798;2023-02-26T10:59:59;1.70;72.90
27314;DHT22;14800;48.174;9.798;2023-02-26T11:02:40;1.70;73.00
27314;DHT22;14800;48.174;9.798;2023-02-26T11:05:19;1.70;73.40
27314;DHT22;14800;48.174;9.798;2023-02-26T11:07:48;1.70;73.60
27314;DHT22;14800;48.174;9.798;2023-02-26T11:10:18;1.60;73.80
27314;DHT22;14800;48.174;9.798;2023-02-26T11:12:44;1.60;73.90
27314;DHT22;14800;48.174;9.798;2023-02-26T11:15:17;1.60;73.80
27314;DHT22;14800;48.174;9.798;2023-02-26T11:17:46;1.60;73.80
27314;DHT22;14800;48.174;9.798;2023-02-26T11:20:23;1.60;73.90
27314;DHT22;14800;48.174;9.798;2023-02-26T11:22:52;1.60;74.30
27314;DHT22;14800;48.174;9.798;2023-02-26T11:25:23;1.50;74.30
27314;DHT22;14800;48.174;9.798;2023-02-26T11:27:53;1.50;74.40
27314;DHT22;14800;48.174;9.798;2023-02-26T11:30:25;1.50;74.50
27314;DHT22;14800;48.174;9.798;2023-02-26T11:32:55;1.50;74.70
27314;DHT22;14800;48.174;9.798;2023-02-26T11:35:23;1.50;74.90
27314;DHT22;14800;48.174;9.798;2023-02-26T11:37:57;1.50;75.20
27314;DHT22;14800;48.174;9.798;2023-02-26T11:40:40;1.50;75.40
27314;DHT22;14800;48.174;9.798;2023-02-26T11:43:11;1.60;75.60
27314;DHT22;14800;48.174;9.798;2023-02-26T11:45:42;1.60;75.50
27314;DHT22;14800;48.174;9.798;2023-02-26T11:48:14;1.70;75.60
27314;DHT22;14800;48.174;9.798;2023-02-26T11:50:43;1.70;75.70
27314;DHT22;14800;48.174;9.798;2023-02-26T11:53:25;1.80;75.80
27314;DHT22;14800;48.174;9.798;2023-02-26T11:56:41;1.80;75.90
27314;DHT22;14800;48.174;9.798;2023-02-26T11:58:51;1.90;75.70
27314;DHT22;14800;48.174;9.798;2023-02-26T12:01:17;1.90;75.60
27314;DHT22;14800;48.174;9.798;2023-02-26T12:03:47;1.90;75.70
27314;DHT22;14800;48.174;9.798;2023-02-26T12:06:22;2.00;75.70
27314;DHT22;14800;48.174;9.798;2023-02-26T12:08:49;2.00;75.70
27314;DHT22;14800;48.174;9.798;2023-02-26T12:19:16;2.20;75.30
27314;DHT22;14800;48.174;9.798;2023-02-26T12:24:47;2.20;75.70
27314;DHT22;14800;48.174;9.798;2023-02-26T12:30:13;2.30;75.70
27314;DHT22;14800;48.174;9.798;2023-02-26T12:35:38;2.40;75.70
27314;DHT22;14800;48.174;9.798;2023-02-26T12:38:25;2.30;75.70
27314;DHT22;14800;48.174;9.798;2023-02-26T12:41:16;2.30;75.90
27314;DHT22;14800;48.174;9.798;2023-02-26T12:43:53;2.30;76.00
27314;DHT22;14800;48.174;9.798;2023-02-26T12:49:53;2.30;75.70
27314;DHT22;14800;48.174;9.798;2023-02-26T13:01:07;2.30;75.90
27314;DHT22;14800;48.174;9.798;2023-02-26T13:06:50;2.40;76.00
27314;DHT22;14800;48.174;9.798;2023-02-26T13:12:32;2.50;75.90
27314;DHT22;14800;48.174;9.798;2023-02-26T13:17:56;2.60;75.00
27314;DHT22;14800;48.174;9.798;2023-02-26T13:20:26;2.60;74.80
27314;DHT22;14800;48.174;9.798;2023-02-26T13:22:58;2.60;74.80
27314;DHT22;14800;48.174;9.798;2023-02-26T13:25:37;2.60;74.90
27314;DHT22;14800;48.174;9.798;2023-02-26T13:28:38;2.60;74.70
27314;DHT22;14800;48.174;9.798;2023-02-26T13:31:25;2.50;74.30
27314;DHT22;14800;48.174;9.798;2023-02-26T13:33:54;2.50;73.80
27314;DHT22;14800;48.174;9.798;2023-02-26T13:36:22;2.50;73.80
27314;DHT22;14800;48.174;9.798;2023-02-26T13:39:38;2.50;74.00
27314;DHT22;14800;48.174;9.798;2023-02-26T13:50:31;2.50;74.00
27314;DHT22;14800;48.174;9.798;2023-02-26T13:53:04;2.50;74.30
27314;DHT22;14800;48.174;9.798;2023-02-26T13:55:51;2.50;74.40
27314;DHT22;14800;48.174;9.798;2023-02-26T13:58:47;2.50;74.50
27314;DHT22;14800;48.174;9.798;2023-02-26T14:01:47;2.50;75.30
27314;DHT22;14800;48.174;9.798;2023-02-26T14:04:22;2.40;75.40
27314;DHT22;14800;48.174;9.798;2023-02-26T14:06:53;2.30;75.50
27314;DHT22;14800;48.174;9.798;2023-02-26T14:14:43;2.10;77.10
27314;DHT22;14800;48.174;9.798;2023-02-26T14:22:19;2.10;77.00
27314;DHT22;14800;48.174;9.798;2023-02-26T14:35:08;2.30;78.00
27314;DHT22;14800;48.174;9.798;2023-02-26T14:37:37;2.40;78.00
27314;DHT22;14800;48.174;9.798;2023-02-26T14:40:05;2.40;78.20
27314;DHT22;14800;48.174;9.798;2023-02-26T14:42:41;2.30;78.30
27314;DHT22;14800;48.174;9.798;2023-02-26T14:48:01;2.10;78.30
27314;DHT22;14800;48.174;9.798;2023-02-26T14:50:44;2.00;78.50
27314;DHT22;14800;48.174;9.798;2023-02-26T14:53:49;2.00;78.50
27314;DHT22;14800;48.174;9.798;2023-02-26T15:01:49;1.90;78.10
27314;DHT22;14800;48.174;9.798;2023-02-26T15:04:25;1.80;77.80
27314;DHT22;14800;48.174;9.798;2023-02-26T15:12:43;1.80;77.30
27314;DHT22;14800;48.174;9.798;2023-02-26T15:18:34;1.80;77.10
27314;DHT22;14800;48.174;9.798;2023-02-26T15:23:41;1.90;77.20
27314;DHT22;14800;48.174;9.798;2023-02-26T15:26:16;2.00;77.30
27314;DHT22;14800;48.174;9.798;2023-02-26T15:28:43;2.00;77.30
27314;DHT22;14800;48.174;9.798;2023-02-26T15:31:10;2.00;77.20
27314;DHT22;14800;48.174;9.798;2023-02-26T15:33:36;2.00;77.40
27314;DHT22;14800;48.174;9.798;2023-02-26T15:36:14;2.00;77.60
27314;DHT22;14800;48.174;9.798;2023-02-26T15:38:46;2.00;78.00
27314;DHT22;14800;48.174;9.798;2023-02-26T15:41:12;2.00;77.80
27314;DHT22;14800;48.174;9.798;2023-02-26T15:43:41;2.00;77.80
27314;DHT22;14800;48.174;9.798;2023-02-26T15:46:09;2.00;77.70
27314;DHT22;14800;48.174;9.798;2023-02-26T15:48:37;2.00;77.50
27314;DHT22;14800;48.174;9.798;2023-02-26T15:51:08;2.00;77.40
27314;DHT22;14800;48.174;9.798;2023-02-26T15:53:36;2.00;77.40
27314;DHT22;14800;48.174;9.798;2023-02-26T15:56:08;2.00;77.20
27314;DHT22;14800;48.174;9.798;2023-02-26T15:58:45;2.00;76.90
27314;DHT22;14800;48.174;9.798;2023-02-26T16:01:22;2.00;76.70
27314;DHT22;14800;48.174;9.798;2023-02-26T16:03:56;2.00;76.60
27314;DHT22;14800;48.174;9.798;2023-02-26T16:06:32;2.00;77.10
27314;DHT22;14800;48.174;9.798;2023-02-26T16:08:59;1.90;77.20
27314;DHT22;14800;48.174;9.798;2023-02-26T16:11:31;1.90;77.20
27314;DHT22;14800;48.174;9.798;2023-02-26T16:13:58;1.90;77.30
27314;DHT22;14800;48.174;9.798;2023-02-26T16:16:27;1.90;77.10
27314;DHT22;14800;48.174;9.798;2023-02-26T16:18:54;1.80;77.10
27314;DHT22;14800;48.174;9.798;2023-02-26T16:21:28;1.80;77.10
27314;DHT22;14800;48.174;9.798;2023-02-26T16:23:56;1.70;77.60
27314;DHT22;14800;48.174;9.798;2023-02-26T16:26:36;1.70;77.80
27314;DHT22;14800;48.174;9.798;2023-02-26T16:31:39;1.60;78.00
27314;DHT22;14800;48.174;9.798;2023-02-26T16:36:57;1.60;77.90
27314;DHT22;14800;48.174;9.798;2023-02-26T16:39:33;1.60;77.60
27314;DHT22;14800;48.174;9.798;2023-02-26T16:42:11;1.60;77.40
27314;DHT22;14800;48.174;9.798;2023-02-26T16:45:00;1.60;77.30
27314;DHT22;14800;48.174;9.798;2023-02-26T16:47:28;1.60;77.20
27314;DHT22;14800;48.174;9.798;2023-02-26T16:49:55;1.60;77.10
27314;DHT22;14800;48.174;9.798;2023-02-26T16:52:23;1.60;76.90
27314;DHT22;14800;48.174;9.798;2023-02-26T16:54:57;1.60;76.80
27314;DHT22;14800;48.174;9.798;2023-02-26T16:57:32;1.60;76.60
27314;DHT22;14800;48.174;9.798;2023-02-26T17:00:00;1.60;76.70
27314;DHT22;14800;48.174;9.798;2023-02-26T17:02:32;1.60;76.70
27314;DHT22;14800;48.174;9.798;2023-02-26T17:05:35;1.60;76.80
27314;DHT22;14800;48.174;9.798;2023-02-26T17:08:17;1.60;77.50
27314;DHT22;14800;48.174;9.798;2023-02-26T17:11:05;1.60;77.60
27314;DHT22;14800;48.174;9.798;2023-02-26T17:13:32;1.50;77.70
27314;DHT22;14800;48.174;9.798;2023-02-26T17:16:00;1.50;77.80
27314;DHT22;14800;48.174;9.798;2023-02-26T17:18:27;1.50;78.10
27314;DHT22;14800;48.174;9.798;2023-02-26T17:20:52;1.40;78.20
27314;DHT22;14800;48.174;9.798;2023-02-26T17:23:19;1.40;78.40
27314;DHT22;14800;48.174;9.798;2023-02-26T17:25:48;1.30;78.80
27314;DHT22;14800;48.174;9.798;2023-02-26T17:28:26;1.30;78.60
27314;DHT22;14800;48.174;9.798;2023-02-26T17:30:53;1.30;78.80
27314;DHT22;14800;48.174;9.798;2023-02-26T17:33:19;1.20;78.50
27314;DHT22;14800;48.174;9.798;2023-02-26T17:35:45;1.20;78.80
27314;DHT22;14800;48.174;9.798;2023-02-26T17:38:11;1.20;78.70
27314;DHT22;14800;48.174;9.798;2023-02-26T17:40:38;1.10;78.70
27314;DHT22;14800;48.174;9.798;2023-02-26T17:43:05;1.10;78.70
27314;DHT22;14800;48.174;9.798;2023-02-26T17:45:32;1.10;78.80
27314;DHT22;14800;48.174;9.798;2023-02-26T17:47:58;1.10;78.80
27314;DHT22;14800;48.174;9.798;2023-02-26T17:52:58;1.00;78.50
27314;DHT22;14800;48.174;9.798;2023-02-26T17:55:23;1.00;78.30
27314;DHT22;14800;48.174;9.798;2023-02-26T17:57:49;1.10;78.20
27314;DHT22;14800;48.174;9.798;2023-02-26T18:00:16;1.00;78.10
27314;DHT22;14800;48.174;9.798;2023-02-26T18:02:42;1.00;78.10
27314;DHT22;14800;48.174;9.798;2023-02-26T18:05:08;1.00;78.00
27314;DHT22;14800;48.174;9.798;2023-02-26T18:07:34;1.00;77.90
27314;DHT22;14800;48.174;9.798;2023-02-26T18:10:00;1.00;77.80
27314;DHT22;14800;48.174;9.798;2023-02-26T18:12:26;1.00;77.60
27314;DHT22;14800;48.174;9.798;2023-02-26T18:14:51;1.00;78.40
27314;DHT22;14800;48.174;9.798;2023-02-26T18:17:24;0.90;78.00
27314;DHT22;14800;48.174;9.798;2023-02-26T18:19:50;0.90;78.00
27314;DHT22;14800;48.174;9.798;2023-02-26T18:22:17;0.90;77.90
27314;DHT22;14800;48.174;9.798;2023-02-26T18:24:44;0.90;78.00
27314;DHT22;14800;48.174;9.798;2023-02-26T18:27:15;0.90;78.00
27314;DHT22;14800;48.174;9.798;2023-02-26T18:29:41;0.80;78.80
27314;DHT22;14800;48.174;9.798;2023-02-26T18:32:15;0.80;78.00
27314;DHT22;14800;48.174;9.798;2023-02-26T18:34:41;0.80;78.10
27314;DHT22;14800;48.174;9.798;2023-02-26T18:37:11;0.80;78.20
27314;DHT22;14800;48.174;9.798;2023-02-26T18:39:38;0.80;78.20
27314;DHT22;14800;48.174;9.798;2023-02-26T18:42:03;0.80;78.50
27314;DHT22;14800;48.174;9.798;2023-02-26T18:44:29;0.80;78.50
27314;DHT22;14800;48.174;9.798;2023-02-26T18:46:58;0.80;78.60
27314;DHT22;14800;48.174;9.798;2023-02-26T18:49:24;0.80;78.80
27314;DHT22;14800;48.174;9.798;2023-02-26T18:51:50;0.80;78.90
27314;DHT22;14800;48.174;9.798;2023-02-26T18:54:15;0.80;79.00
27314;DHT22;14800;48.174;9.798;2023-02-26T18:56:41;0.80;79.00
27314;DHT22;14800;48.174;9.798;2023-02-26T18:59:07;0.80;78.90
27314;DHT22;14800;48.174;9.798;2023-02-26T19:01:32;0.80;79.00